createdAt,value
2023-01-12T00:00:04.152Z,3.27
2023-01-12T00:02:35.883Z,3.00
2023-01-12T00:05:07.543Z,4.50
2023-01-12T00:07:38.213Z,4.83
2023-01-12T00:10:10.498Z,5.40
2023-01-12T00:12:41.255Z,9.13
2023-01-12T00:15:13.565Z,8.10
2023-01-12T00:17:44.207Z,7.73
2023-01-12T00:20:15.216Z,7.23
2023-01-12T00:22:50.113Z,6.10
2023-01-12T00:25:20.912Z,7.57
2023-01-12T00:27:52.481Z,6.43
2023-01-12T00:30:23.214Z,9.93
2023-01-12T00:32:54.532Z,7.73
2023-01-12T00:35:25.510Z,6.50
2023-01-12T00:37:56.146Z,6.23
2023-01-12T00:40:26.763Z,7.40
2023-01-12T00:43:14.861Z,8.43
2023-01-12T00:45:45.481Z,7.53
2023-01-12T00:48:16.191Z,7.97
2023-01-12T00:50:47.216Z,7.00
2023-01-12T00:53:17.857Z,7.67
2023-01-12T00:55:49.412Z,7.37
2023-01-12T00:58:20.233Z,6.80
2023-01-12T01:00:50.926Z,6.50
2023-01-12T01:03:21.607Z,7.07
2023-01-12T01:05:52.352Z,7.17
2023-01-12T01:08:22.915Z,7.20
2023-01-12T01:11:03.133Z,6.13
2023-01-12T01:13:35.223Z,5.00
2023-01-12T01:16:07.800Z,5.30
2023-01-12T01:18:39.151Z,5.07
2023-01-12T01:21:11.721Z,4.70
2023-01-12T01:23:43.793Z,4.50
2023-01-12T01:26:17.326Z,5.10
2023-01-12T01:28:48.246Z,5.20
2023-01-12T01:31:21.455Z,5.30
2023-01-12T01:33:53.086Z,4.17
2023-01-12T01:36:23.968Z,4.17
2023-01-12T01:38:54.840Z,3.53
2023-01-12T01:41:27.712Z,3.40
2023-01-12T01:44:00.867Z,3.97
2023-01-12T01:46:42.423Z,4.37
2023-01-12T01:49:18.896Z,4.50
2023-01-12T01:51:50.032Z,4.23
2023-01-12T01:54:20.772Z,3.47
2023-01-12T01:56:53.177Z,3.00
2023-01-12T01:59:26.939Z,4.23
2023-01-12T02:01:58.265Z,10.57
2023-01-12T02:04:29.898Z,13.47
2023-01-12T02:07:01.984Z,9.53
2023-01-12T02:09:33.465Z,21.03
2023-01-12T02:12:22.543Z,26.63
2023-01-12T02:15:12.000Z,8.87
2023-01-12T02:17:50.790Z,18.83
2023-01-12T02:23:53.705Z,12.37
2023-01-12T02:27:07.056Z,12.63
2023-01-12T02:30:19.652Z,12.83
2023-01-12T02:32:55.631Z,11.90
2023-01-12T02:35:29.778Z,12.50
2023-01-12T02:38:04.783Z,14.77
2023-01-12T02:40:38.632Z,8.70
2023-01-12T02:43:12.954Z,9.63
2023-01-12T02:45:47.947Z,16.20
2023-01-12T02:48:22.615Z,12.60
2023-01-12T02:50:56.308Z,10.87
2023-01-12T02:53:31.647Z,11.20
2023-01-12T02:56:05.295Z,11.97
2023-01-12T02:58:38.918Z,13.33
2023-01-12T03:01:10.878Z,13.10
2023-01-12T03:03:43.173Z,13.83
2023-01-12T03:06:18.581Z,13.10
2023-01-12T03:08:51.177Z,14.63
2023-01-12T03:11:24.207Z,12.97
2023-01-12T03:13:57.653Z,13.47
2023-01-12T03:16:31.014Z,16.63
2023-01-12T03:19:06.203Z,18.50
2023-01-12T03:21:39.995Z,25.70
2023-01-12T03:24:13.193Z,48.93
2023-01-12T03:26:46.781Z,30.33
2023-01-12T03:29:20.420Z,40.27
2023-01-12T03:31:51.172Z,43.27
2023-01-12T03:34:22.292Z,28.33
2023-01-12T03:36:56.300Z,43.00
2023-01-12T03:39:30.356Z,36.67
2023-01-12T03:42:03.988Z,38.60
2023-01-12T03:44:39.187Z,28.13
2023-01-12T03:47:13.415Z,27.43
2023-01-12T03:49:47.357Z,26.63
2023-01-12T03:52:19.683Z,23.70
2023-01-12T03:54:52.971Z,28.40
2023-01-12T03:57:24.441Z,25.40
2023-01-12T03:59:56.175Z,18.67
2023-01-12T04:02:26.877Z,21.70
2023-01-12T04:04:58.961Z,22.10
2023-01-12T04:07:30.546Z,23.50
2023-01-12T04:10:01.121Z,21.50
2023-01-12T04:12:31.703Z,21.73
2023-01-12T04:15:02.391Z,26.87
2023-01-12T04:17:33.485Z,31.93
2023-01-12T04:20:04.914Z,39.07
2023-01-12T04:22:44.526Z,32.10
2023-01-12T04:25:16.823Z,36.97
2023-01-12T04:27:49.920Z,35.53
2023-01-12T04:30:24.318Z,29.97
2023-01-12T04:32:55.788Z,28.70
2023-01-12T04:35:27.825Z,28.50
2023-01-12T04:40:37.068Z,27.23
2023-01-12T04:43:08.862Z,21.43
2023-01-12T04:45:42.189Z,22.03
2023-01-12T04:48:15.698Z,23.03
2023-01-12T04:50:46.365Z,20.07
2023-01-12T04:53:17.436Z,19.27
2023-01-12T04:55:49.778Z,19.23
2023-01-12T04:58:20.556Z,18.33
2023-01-12T05:00:51.304Z,20.10
2023-01-12T05:03:23.277Z,23.20
2023-01-12T05:05:54.026Z,21.50
2023-01-12T05:08:42.126Z,22.77
2023-01-12T05:11:12.742Z,41.90
2023-01-12T05:13:43.426Z,37.00
2023-01-12T05:16:16.245Z,29.43
2023-01-12T05:18:47.633Z,40.73
2023-01-12T05:21:19.067Z,37.33
2023-01-12T05:23:50.267Z,30.00
2023-01-12T05:26:21.396Z,27.60
2023-01-12T05:28:52.751Z,22.43
2023-01-12T05:31:23.414Z,21.73
2023-01-12T05:33:53.996Z,22.20
2023-01-12T05:36:26.534Z,18.13
2023-01-12T05:38:57.158Z,20.30
2023-01-12T05:41:28.001Z,19.93
2023-01-12T05:43:58.583Z,17.33
2023-01-12T05:46:31.026Z,20.43
2023-01-12T05:49:01.641Z,18.50
2023-01-12T05:51:32.824Z,19.77
2023-01-12T05:54:03.779Z,15.23
2023-01-12T05:56:34.393Z,20.03
2023-01-12T05:59:07.224Z,15.47
2023-01-12T06:01:38.720Z,14.77
2023-01-12T06:04:09.358Z,13.23
2023-01-12T06:06:40.143Z,15.20
2023-01-12T06:09:11.086Z,16.50
2023-01-12T06:11:59.204Z,14.00
2023-01-12T06:14:30.130Z,15.23
2023-01-12T06:17:00.885Z,21.17
2023-01-12T06:19:31.597Z,20.33
2023-01-12T06:22:02.448Z,19.27
2023-01-12T06:24:36.906Z,18.23
2023-01-12T06:27:08.204Z,19.47
2023-01-12T06:29:38.851Z,19.90
2023-01-12T06:32:09.570Z,18.97
2023-01-12T06:34:40.424Z,18.40
2023-01-12T06:37:12.728Z,19.87
2023-01-12T06:39:43.418Z,16.90
2023-01-12T06:42:33.595Z,15.07
2023-01-12T06:45:04.968Z,13.53
2023-01-12T06:47:35.691Z,15.23
2023-01-12T06:50:07.276Z,29.83
2023-01-12T06:52:38.006Z,43.13
2023-01-12T06:55:09.978Z,41.70
2023-01-12T06:57:40.661Z,39.97
2023-01-12T07:00:14.139Z,35.83
2023-01-12T07:02:44.934Z,23.77
2023-01-12T07:05:15.739Z,25.60
2023-01-12T07:07:46.412Z,32.27
2023-01-12T07:10:17.660Z,30.50
2023-01-12T07:12:48.375Z,22.90
2023-01-12T07:15:19.421Z,28.63
2023-01-12T07:17:51.555Z,24.60
2023-01-12T07:20:22.181Z,20.17
2023-01-12T07:22:53.117Z,18.87
2023-01-12T07:25:25.213Z,16.50
2023-01-12T07:27:57.757Z,16.07
2023-01-12T07:30:29.158Z,14.73
2023-01-12T07:35:46.823Z,15.63
2023-01-12T07:38:17.484Z,17.13
2023-01-12T07:40:48.116Z,19.20
2023-01-12T07:43:19.347Z,19.27
2023-01-12T07:45:50.131Z,16.70
2023-01-12T07:48:21.835Z,19.67
2023-01-12T07:50:52.901Z,21.80
2023-01-12T07:53:24.128Z,20.20
2023-01-12T07:55:54.825Z,24.17
2023-01-12T07:58:26.999Z,23.57
2023-01-12T08:01:00.528Z,19.33
2023-01-12T08:03:31.204Z,26.60
2023-01-12T08:06:03.216Z,27.30
2023-01-12T08:08:33.926Z,24.63
2023-01-12T08:11:05.132Z,20.83
2023-01-12T08:13:35.937Z,21.13
2023-01-12T08:16:10.356Z,20.73
2023-01-12T08:18:44.288Z,16.90
2023-01-12T08:21:17.911Z,16.23
2023-01-12T08:23:51.057Z,15.67
2023-01-12T08:26:24.777Z,21.10
2023-01-12T08:28:58.182Z,22.00
2023-01-12T08:31:29.786Z,19.57
2023-01-12T08:34:00.601Z,18.33
2023-01-12T08:36:33.398Z,20.03
2023-01-12T08:39:04.988Z,20.53
2023-01-12T08:41:37.387Z,23.20
2023-01-12T08:44:11.233Z,25.67
2023-01-12T08:46:48.119Z,24.40
2023-01-12T08:49:22.331Z,26.93
2023-01-12T08:51:54.240Z,38.10
2023-01-12T08:54:25.512Z,22.20
2023-01-12T08:56:56.097Z,18.87
2023-01-12T08:59:26.805Z,20.10
2023-01-12T09:01:57.546Z,25.23
2023-01-12T09:04:28.413Z,22.77
2023-01-12T09:07:00.171Z,22.33
2023-01-12T09:09:31.087Z,21.63
2023-01-12T09:12:01.963Z,24.67
2023-01-12T09:14:32.756Z,25.50
2023-01-12T09:17:03.431Z,24.03
2023-01-12T09:19:34.408Z,24.27
2023-01-12T09:22:04.990Z,23.87
2023-01-12T09:24:36.777Z,26.20
2023-01-12T09:27:07.559Z,24.97
2023-01-12T09:29:38.232Z,23.57
2023-01-12T09:32:09.119Z,23.83
2023-01-12T09:34:39.794Z,25.50
2023-01-12T09:37:10.686Z,23.93
2023-01-12T09:39:41.357Z,24.03
2023-01-12T09:45:13.469Z,23.27
2023-01-12T09:47:53.653Z,38.10
2023-01-12T09:50:28.435Z,44.50
2023-01-12T09:55:42.221Z,35.50
2023-01-12T09:58:33.001Z,28.73
2023-01-12T10:01:06.329Z,25.67
2023-01-12T10:03:39.444Z,25.03
2023-01-12T10:06:15.145Z,25.03
2023-01-12T10:08:48.914Z,26.53
2023-01-12T10:11:23.278Z,26.80
2023-01-12T10:14:37.313Z,25.57
2023-01-12T10:17:25.807Z,25.77
2023-01-12T10:20:01.687Z,25.33
2023-01-12T10:22:54.082Z,24.87
2023-01-12T10:25:37.070Z,24.80
2023-01-12T10:28:15.491Z,24.60
2023-01-12T10:30:47.237Z,23.23
2023-01-12T10:33:20.774Z,24.20
2023-01-12T10:35:55.830Z,23.60
2023-01-12T10:38:29.609Z,23.83
2023-01-12T10:41:17.348Z,23.07
2023-01-12T10:43:50.803Z,24.40
2023-01-12T10:46:24.635Z,25.47
2023-01-12T10:48:57.200Z,25.40
2023-01-12T10:51:30.384Z,24.83
2023-01-12T10:54:04.499Z,24.53
2023-01-12T10:56:39.446Z,25.20
2023-01-12T10:59:17.967Z,23.63
2023-01-12T11:01:52.141Z,25.43
2023-01-12T11:04:25.997Z,23.93
2023-01-12T11:07:05.072Z,24.33
2023-01-12T11:09:35.428Z,22.13
2023-01-12T11:12:09.001Z,22.87
2023-01-12T11:14:40.044Z,23.67
2023-01-12T11:17:28.907Z,22.33
2023-01-12T11:20:02.096Z,20.30
2023-01-12T11:22:36.392Z,21.73
2023-01-12T11:25:11.125Z,21.57
2023-01-12T11:27:45.839Z,22.67
2023-01-12T11:30:22.024Z,21.53
2023-01-12T11:32:56.742Z,20.00
2023-01-12T11:35:35.016Z,18.17
2023-01-12T11:38:13.117Z,17.00
2023-01-12T11:40:45.931Z,14.17
2023-01-12T11:43:43.132Z,13.03
2023-01-12T11:46:21.175Z,12.03
2023-01-12T11:48:58.076Z,12.20
2023-01-12T11:51:29.120Z,11.23
2023-01-12T11:54:00.995Z,15.30
2023-01-12T11:57:12.228Z,16.17
2023-01-12T11:59:47.252Z,15.13
2023-01-12T12:02:26.712Z,16.20
2023-01-12T12:05:20.399Z,15.83
2023-01-12T12:08:02.935Z,16.17
2023-01-12T12:10:37.672Z,15.17
2023-01-12T12:13:32.735Z,16.33
2023-01-12T12:16:22.571Z,14.17
2023-01-12T12:18:59.409Z,14.63
2023-01-12T12:21:42.449Z,14.20
2023-01-12T12:24:19.457Z,13.90
2023-01-12T12:26:54.926Z,14.37
2023-01-12T12:29:33.421Z,14.23
2023-01-12T12:32:18.473Z,14.20
2023-01-12T12:35:16.615Z,15.37
2023-01-12T12:37:54.496Z,15.00
2023-01-12T12:40:37.794Z,14.47
2023-01-12T12:43:30.174Z,14.30
2023-01-12T12:46:05.501Z,13.30
2023-01-12T12:48:39.679Z,13.10
2023-01-12T12:51:13.194Z,13.00
2023-01-12T12:53:46.098Z,13.03
2023-01-12T12:56:20.852Z,11.57
2023-01-12T12:58:52.916Z,10.87
2023-01-12T13:01:57.497Z,11.23
2023-01-12T13:05:04.875Z,10.73
2023-01-12T13:07:37.630Z,9.57
2023-01-12T13:10:32.678Z,9.20
2023-01-12T13:13:08.816Z,8.67
2023-01-12T13:15:40.230Z,8.93
2023-01-12T13:18:15.220Z,8.13
2023-01-12T13:20:59.091Z,8.10
2023-01-12T13:23:52.133Z,8.47
2023-01-12T13:26:55.605Z,7.87
2023-01-12T13:29:46.275Z,7.37
2023-01-12T13:36:10.918Z,7.43
2023-01-12T13:39:07.181Z,7.23
2023-01-12T13:42:10.205Z,7.23
2023-01-12T13:44:44.741Z,6.40
2023-01-12T13:47:19.598Z,7.83
2023-01-12T13:49:53.933Z,7.50
2023-01-12T13:52:28.691Z,7.80
2023-01-12T13:54:59.809Z,7.37
2023-01-12T13:57:32.725Z,9.20
2023-01-12T14:00:07.933Z,7.90
2023-01-12T14:02:40.190Z,7.33
2023-01-12T14:05:22.544Z,7.17
2023-01-12T14:07:58.916Z,7.40
2023-01-12T14:10:36.480Z,8.10
2023-01-12T14:13:15.874Z,7.27
2023-01-12T14:16:04.357Z,7.60
2023-01-12T14:18:46.618Z,7.50
2023-01-12T14:21:30.301Z,6.90
2023-01-12T14:24:17.281Z,6.77
2023-01-12T14:26:48.719Z,7.90
2023-01-12T14:29:19.817Z,6.70
2023-01-12T14:31:52.524Z,5.80
2023-01-12T14:34:31.688Z,6.27
2023-01-12T14:37:03.917Z,7.97
2023-01-12T14:39:39.093Z,6.43
2023-01-12T14:42:36.178Z,5.67
2023-01-12T14:45:36.688Z,6.40
2023-01-12T14:48:23.645Z,5.73
2023-01-12T14:51:17.628Z,8.50
2023-01-12T14:53:49.942Z,9.60
2023-01-12T14:56:24.043Z,10.13
2023-01-12T14:58:55.454Z,9.40
2023-01-12T15:01:33.965Z,9.57
2023-01-12T15:04:05.967Z,8.43
2023-01-12T15:06:41.088Z,11.73
2023-01-12T15:09:29.610Z,10.10
2023-01-12T15:12:00.729Z,10.73
2023-01-12T15:14:32.044Z,10.63
2023-01-12T15:17:28.183Z,9.57
2023-01-12T15:20:51.952Z,8.47
2023-01-12T15:23:44.252Z,8.67
2023-01-12T15:26:15.225Z,8.23
2023-01-12T15:28:47.460Z,9.33
2023-01-12T15:31:22.919Z,7.63
2023-01-12T15:33:53.953Z,7.70
2023-01-12T15:36:24.955Z,7.60
2023-01-12T15:38:55.832Z,8.40
2023-01-12T15:41:48.000Z,7.97
2023-01-12T15:44:20.456Z,7.50
2023-01-12T15:46:51.190Z,10.43
2023-01-12T15:49:22.517Z,10.47
2023-01-12T15:51:54.030Z,8.10
2023-01-12T15:54:25.114Z,8.17
2023-01-12T15:56:57.641Z,7.70
2023-01-12T15:59:28.683Z,8.33
2023-01-12T16:01:59.683Z,7.27
2023-01-12T16:04:46.037Z,8.10
2023-01-12T16:07:03.228Z,7.37
2023-01-12T16:09:34.226Z,7.50
2023-01-12T16:12:05.676Z,7.63
2023-01-12T16:14:37.137Z,7.63
2023-01-12T16:17:07.978Z,6.97
2023-01-12T16:19:42.734Z,7.67
2023-01-12T16:22:21.689Z,7.23
2023-01-12T16:24:56.643Z,6.87
2023-01-12T16:27:31.037Z,7.93
2023-01-12T16:30:04.089Z,7.90
2023-01-12T16:32:36.200Z,8.63
2023-01-12T16:35:09.622Z,7.50
2023-01-12T16:37:43.193Z,8.00
2023-01-12T16:40:15.775Z,8.03
2023-01-12T16:42:46.847Z,6.97
2023-01-12T16:45:18.567Z,7.90
2023-01-12T16:47:49.506Z,7.53
2023-01-12T16:50:20.521Z,8.17
2023-01-12T16:52:51.410Z,7.43
2023-01-12T16:55:22.317Z,8.20
2023-01-12T16:57:53.118Z,9.13
2023-01-12T17:00:26.403Z,9.57
2023-01-12T17:02:57.757Z,11.33
2023-01-12T17:05:29.302Z,10.53
2023-01-12T17:08:01.542Z,9.70
2023-01-12T17:10:33.619Z,10.83
2023-01-12T17:13:05.401Z,10.27
2023-01-12T17:18:15.677Z,11.03
2023-01-12T17:20:46.675Z,11.23
2023-01-12T17:23:17.903Z,10.37
2023-01-12T17:25:48.785Z,9.57
2023-01-12T17:28:19.639Z,9.33
2023-01-12T17:30:50.668Z,10.03
2023-01-12T17:33:22.096Z,9.17
2023-01-12T17:35:54.509Z,8.93
2023-01-12T17:38:25.561Z,9.00
2023-01-12T17:40:57.468Z,9.23
2023-01-12T17:43:28.813Z,9.50
2023-01-12T17:46:01.518Z,9.20
2023-01-12T17:48:32.734Z,9.40
2023-01-12T17:51:05.331Z,9.60
2023-01-12T17:53:36.236Z,9.10
2023-01-12T17:56:09.996Z,8.87
2023-01-12T17:58:41.918Z,9.30
2023-01-12T18:01:16.336Z,8.93
2023-01-12T18:04:06.514Z,10.07
2023-01-12T18:06:38.366Z,11.00
2023-01-12T18:09:11.203Z,11.13
2023-01-12T18:11:42.461Z,11.50
2023-01-12T18:14:13.938Z,10.10
2023-01-12T18:16:45.101Z,14.17
2023-01-12T18:19:16.212Z,9.23
2023-01-12T18:21:46.981Z,9.90
2023-01-12T18:24:17.820Z,9.03
2023-01-12T18:26:48.568Z,8.17
2023-01-12T18:29:19.695Z,8.03
2023-01-12T18:31:50.587Z,10.37
2023-01-12T18:34:21.649Z,8.70
2023-01-12T18:36:52.532Z,8.50
2023-01-12T18:39:23.396Z,7.97
2023-01-12T18:42:12.258Z,8.87
2023-01-12T18:44:43.100Z,9.73
2023-01-12T18:47:34.712Z,7.83
2023-01-12T18:50:24.896Z,6.80
2023-01-12T18:53:12.967Z,9.20
2023-01-12T18:55:44.078Z,8.20
2023-01-12T18:58:14.913Z,8.03
2023-01-12T19:00:45.779Z,8.40
2023-01-12T19:03:17.185Z,8.00
2023-01-12T19:05:51.574Z,9.00
2023-01-12T19:08:40.082Z,7.77
2023-01-12T19:11:13.152Z,7.33
2023-01-12T19:14:02.039Z,7.93
2023-01-12T19:16:50.631Z,9.10
2023-01-12T19:19:24.580Z,6.83
2023-01-12T19:22:13.248Z,7.00
2023-01-12T19:25:01.474Z,6.63
2023-01-12T19:27:56.904Z,7.70
2023-01-12T19:30:27.893Z,7.10
2023-01-12T19:32:59.563Z,6.40
2023-01-12T19:35:30.689Z,6.83
2023-01-12T19:38:01.604Z,7.53
2023-01-12T19:40:36.316Z,8.07
2023-01-12T19:43:14.694Z,9.63
2023-01-12T19:45:47.787Z,9.30
2023-01-12T19:48:20.499Z,8.57
2023-01-12T19:50:51.886Z,8.27
2023-01-12T19:53:26.093Z,7.97
2023-01-12T19:55:58.469Z,7.87
2023-01-12T19:58:29.613Z,7.70
2023-01-12T20:01:01.179Z,7.77
2023-01-12T20:03:32.396Z,8.77
2023-01-12T20:06:07.718Z,7.77
2023-01-12T20:08:41.560Z,8.97
2023-01-12T20:11:13.160Z,9.10
2023-01-12T20:13:44.099Z,9.47
2023-01-12T20:16:16.196Z,8.90
2023-01-12T20:18:47.403Z,8.93
2023-01-12T20:21:18.528Z,6.93
2023-01-12T20:23:49.390Z,8.73
2023-01-12T20:26:20.227Z,8.50
2023-01-12T20:28:51.230Z,8.93
2023-01-12T20:31:23.572Z,7.93
2023-01-12T20:33:54.663Z,8.60
2023-01-12T20:36:27.517Z,9.53
2023-01-12T20:39:00.054Z,10.07
2023-01-12T20:41:30.757Z,9.97
2023-01-12T20:44:01.344Z,9.50
2023-01-12T20:46:32.154Z,9.33
2023-01-12T20:49:03.279Z,8.53
2023-01-12T20:51:34.214Z,9.47
2023-01-12T20:54:05.949Z,10.37
2023-01-12T20:56:36.685Z,9.40
2023-01-12T20:59:07.619Z,9.43
2023-01-12T21:01:38.218Z,9.00
2023-01-12T21:04:09.024Z,8.37
2023-01-12T21:06:41.141Z,7.63
2023-01-12T21:09:11.903Z,9.20
2023-01-12T21:11:43.182Z,8.77
2023-01-12T21:14:13.917Z,7.27
2023-01-12T21:16:46.385Z,7.87
2023-01-12T21:19:17.061Z,9.13
2023-01-12T21:21:47.813Z,8.97
2023-01-12T21:24:18.533Z,8.40
2023-01-12T21:26:49.338Z,9.30
2023-01-12T21:29:20.214Z,8.80
2023-01-12T21:31:50.974Z,8.50
2023-01-12T21:34:21.623Z,10.23
2023-01-12T21:36:52.200Z,9.77
2023-01-12T21:39:22.819Z,9.83
2023-01-12T21:42:10.971Z,9.40
2023-01-12T21:44:41.672Z,9.33
2023-01-12T21:47:12.439Z,8.20
2023-01-12T21:49:43.073Z,8.07
2023-01-12T21:52:13.982Z,7.90
2023-01-12T21:54:44.801Z,8.83
2023-01-12T21:57:15.365Z,8.23
2023-01-12T21:59:45.986Z,7.40
2023-01-12T22:02:16.673Z,8.20
2023-01-12T22:04:47.460Z,9.93
2023-01-12T22:07:18.121Z,9.73
2023-01-12T22:09:48.777Z,8.70
2023-01-12T22:12:19.380Z,9.50
2023-01-12T22:14:50.144Z,8.87
2023-01-12T22:17:20.743Z,9.37
2023-01-12T22:19:51.340Z,8.50
2023-01-12T22:22:21.934Z,8.53
2023-01-12T22:24:52.634Z,8.73
2023-01-12T22:27:25.709Z,8.43
2023-01-12T22:29:57.060Z,8.27
2023-01-12T22:32:27.658Z,7.87
2023-01-12T22:34:59.245Z,7.43
2023-01-12T22:37:30.343Z,8.47
2023-01-12T22:40:01.375Z,7.50
2023-01-12T22:42:50.897Z,8.93
2023-01-12T22:45:22.015Z,8.70
2023-01-12T22:47:55.292Z,7.27
2023-01-12T22:50:26.655Z,9.10
2023-01-12T22:52:57.414Z,9.90
2023-01-12T22:55:28.308Z,8.10
2023-01-12T22:57:58.990Z,9.93
2023-01-12T23:00:29.635Z,8.08
2023-01-12T23:03:03.333Z,7.87
2023-01-12T23:05:36.760Z,7.83
2023-01-12T23:08:08.859Z,8.13
2023-01-12T23:10:39.526Z,9.33
2023-01-12T23:13:19.254Z,8.87
2023-01-12T23:15:53.698Z,8.13
2023-01-12T23:18:28.571Z,9.40
2023-01-12T23:21:04.578Z,8.10
2023-01-12T23:23:35.241Z,7.30
2023-01-12T23:26:09.074Z,7.90
2023-01-12T23:28:43.230Z,6.73
2023-01-12T23:31:15.973Z,8.40
2023-01-12T23:33:46.897Z,6.30
2023-01-12T23:36:20.039Z,7.13
2023-01-12T23:38:54.905Z,7.50
2023-01-12T23:41:27.771Z,6.60
2023-01-12T23:44:01.156Z,7.73
2023-01-12T23:46:34.022Z,8.37
2023-01-12T23:49:06.031Z,8.43
2023-01-12T23:51:37.026Z,7.63
2023-01-12T23:54:08.108Z,6.73
2023-01-12T23:56:38.732Z,7.47
2023-01-12T23:59:09.383Z,8.10
